Time;durP1;ratioP1;P1;durP2;ratioP2;P2;SDS_P1;SDS_P2;PMS_P1;PMS_P2;Temp;Humidity;BMP_temperature;BMP_pressure;BME280_temperature;BME280_humidity;BME280_pressure;Samples;Min_cycle;Max_cycle;Signal;HPM_P1;HPM_P2
2021/12/23 00:01:11;;;;;;;16.10;6.15;;;6.60;93.10;;;;;;5011044;28;20041;-50
2021/12/23 00:03:36;;;;;;;40.35;11.55;;;6.60;93.10;;;;;;4993206;28;20030;-50
2021/12/23 00:06:02;;;;;;;7.30;2.88;;;6.60;93.10;;;;;;5010639;28;20523;-50
2021/12/23 00:08:28;;;;;;;24.60;9.02;;;6.60;93.10;;;;;;5008500;28;20030;-51
2021/12/23 00:10:53;;;;;;;18.40;8.25;;;6.60;93.10;;;;;;5005782;28;20018;-50
2021/12/23 00:13:19;;;;;;;13.27;4.53;;;6.60;93.10;;;;;;5005014;28;20132;-50
2021/12/23 00:23:53;;;;;;;30.83;12.48;;;6.60;93.10;;;;;;5004337;28;20041;-50
2021/12/23 00:26:19;;;;;;;34.80;12.05;;;6.60;93.10;;;;;;5001139;28;20038;-50
2021/12/23 00:28:44;;;;;;;33.72;12.32;;;6.60;93.10;;;;;;5005473;28;20033;-50
2021/12/23 00:31:10;;;;;;;37.75;11.77;;;6.60;93.10;;;;;;5002310;28;20034;-49
2021/12/23 00:33:39;;;;;;;39.75;11.10;;;6.60;93.10;;;;;;5003654;28;20466;-50
2021/12/23 00:36:05;;;;;;;7.97;4.53;;;6.60;93.10;;;;;;5001643;28;20109;-50
2021/12/23 00:38:38;;;;;;;33.92;12.88;;;6.60;93.10;;;;;;5003053;28;20038;-50
2021/12/23 00:41:04;;;;;;;36.33;13.13;;;6.60;93.10;;;;;;5002802;28;20074;-50
2021/12/23 00:43:32;;;;;;;29.48;11.10;;;6.60;93.10;;;;;;5004317;28;20436;-50
2021/12/23 00:45:58;;;;;;;20.45;9.70;;;6.60;93.10;;;;;;5004135;28;20022;-50
2021/12/23 00:48:24;;;;;;;40.50;14.68;;;6.60;93.10;;;;;;4998747;28;20069;-50
2021/12/23 00:50:50;;;;;;;31.85;8.85;;;6.60;93.10;;;;;;4998274;28;20046;-50
2021/12/23 00:53:19;;;;;;;38.33;11.27;;;6.60;93.10;;;;;;5003833;28;20022;-50
2021/12/23 00:55:49;;;;;;;17.25;6.95;;;6.50;93.10;;;;;;5002420;28;20042;-50
2021/12/23 00:58:15;;;;;;;32.65;12.02;;;6.60;93.10;;;;;;5006627;28;20033;-50
2021/12/23 01:00:41;;;;;;;30.95;10.95;;;6.60;93.20;;;;;;5001869;28;20129;-50
2021/12/23 01:03:07;;;;;;;38.10;12.13;;;6.50;93.10;;;;;;5003202;28;20014;-50
2021/12/23 01:05:33;;;;;;;54.38;17.17;;;6.50;93.10;;;;;;5004859;28;20428;-50
2021/12/23 01:07:58;;;;;;;28.42;9.65;;;6.60;93.10;;;;;;5001908;28;20037;-50
2021/12/23 01:10:25;;;;;;;34.33;11.68;;;6.60;93.10;;;;;;4999832;28;20022;-50
2021/12/23 01:12:54;;;;;;;41.10;13.75;;;6.60;93.20;;;;;;5001574;28;20335;-50
2021/12/23 01:20:25;;;;;;;37.05;13.10;;;6.60;93.10;;;;;;5004120;28;20033;-50
2021/12/23 01:22:51;;;;;;;11.55;6.78;;;6.50;93.10;;;;;;5002698;28;20452;-50
2021/12/23 01:25:17;;;;;;;20.63;7.57;;;6.50;93.10;;;;;;5004016;28;20048;-50
2021/12/23 01:27:42;;;;;;;27.92;9.07;;;6.50;93.10;;;;;;5002608;28;20026;-50
2021/12/23 01:30:08;;;;;;;17.48;6.28;;;6.60;93.20;;;;;;5004497;28;20033;-50
2021/12/23 01:32:34;;;;;;;12.68;5.25;;;6.50;93.10;;;;;;5001686;28;20207;-51
2021/12/23 01:35:00;;;;;;;23.58;8.18;;;6.60;93.10;;;;;;5002367;28;20045;-50
2021/12/23 01:37:25;;;;;;;43.65;12.55;;;6.50;93.10;;;;;;4999972;28;20041;-50
2021/12/23 01:39:51;;;;;;;30.75;10.18;;;6.60;93.20;;;;;;5003399;28;20060;-50
2021/12/23 01:42:17;;;;;;;25.23;10.75;;;6.50;93.10;;;;;;5002349;28;20105;-50
2021/12/23 01:44:42;;;;;;;20.55;8.32;;;6.50;93.20;;;;;;5001454;28;20030;-50
2021/12/23 01:47:08;;;;;;;30.60;9.52;;;6.50;93.20;;;;;;5007067;28;20025;-50
2021/12/23 01:49:33;;;;;;;23.08;9.02;;;6.60;93.20;;;;;;5003506;28;20041;-50
2021/12/23 01:51:59;;;;;;;35.58;10.48;;;6.50;93.20;;;;;;5001052;28;20693;-50
2021/12/23 01:54:24;;;;;;;16.98;7.22;;;6.50;93.20;;;;;;5002345;28;20042;-50
2021/12/23 01:56:50;;;;;;;34.47;12.60;;;6.50;93.10;;;;;;5002909;28;20464;-50
2021/12/23 01:59:16;;;;;;;39.15;12.77;;;6.50;93.20;;;;;;5000256;28;20030;-50
2021/12/23 02:01:44;;;;;;;40.85;13.75;;;6.50;93.20;;;;;;5001096;28;20416;-50
2021/12/23 02:04:10;;;;;;;36.45;13.07;;;6.50;93.20;;;;;;5001211;28;20023;-50
2021/12/23 02:06:35;;;;;;;28.02;9.85;;;6.50;93.20;;;;;;5003876;28;20022;-50
2021/12/23 02:09:01;;;;;;;29.52;9.07;;;6.50;93.20;;;;;;5008184;28;20407;-50
2021/12/23 02:11:27;;;;;;;24.48;9.45;;;6.50;93.20;;;;;;5000112;28;20022;-50
2021/12/23 02:13:53;;;;;;;31.55;10.82;;;6.50;93.10;;;;;;5003074;28;20044;-48
2021/12/23 02:16:18;;;;;;;19.33;8.60;;;6.50;93.20;;;;;;5002739;28;20334;-47
2021/12/23 02:18:44;;;;;;;21.70;8.18;;;6.50;93.20;;;;;;5000695;28;20108;-48
2021/12/23 02:21:09;;;;;;;15.55;5.03;;;6.50;93.50;;;;;;5001080;28;20361;-47
2021/12/23 02:23:35;;;;;;;22.75;8.77;;;6.50;93.20;;;;;;5000436;28;20041;-48
2021/12/23 02:26:01;;;;;;;41.58;12.90;;;6.50;93.20;;;;;;5003996;28;20029;-48
2021/12/23 02:28:27;;;;;;;37.58;11.43;;;6.50;93.20;;;;;;5001435;28;20345;-48
2021/12/23 02:30:53;;;;;;;40.15;12.88;;;6.50;93.20;;;;;;5001273;28;20097;-48
2021/12/23 02:33:25;;;;;;;25.55;7.80;;;6.50;93.20;;;;;;5001760;28;20040;-48
2021/12/23 02:35:52;;;;;;;40.58;11.95;;;6.50;93.20;;;;;;5001897;28;20126;-47
2021/12/23 02:38:17;;;;;;;10.70;6.07;;;6.50;93.20;;;;;;5000344;28;20030;-47
2021/12/23 02:40:44;;;;;;;29.63;10.10;;;6.50;93.20;;;;;;5001716;28;20093;-48
2021/12/23 02:43:27;;;;;;;40.58;14.65;;;6.50;93.20;;;;;;5000929;28;20030;-48
2021/12/23 02:45:56;;;;;;;30.70;12.40;;;6.50;93.20;;;;;;5002432;28;20033;-48
2021/12/23 02:48:26;;;;;;;38.53;12.70;;;6.50;93.30;;;;;;5003410;28;20027;-50
2021/12/23 02:50:54;;;;;;;19.50;7.60;;;6.50;93.20;;;;;;5001218;28;20033;-50
2021/12/23 02:53:20;;;;;;;32.47;13.02;;;6.50;93.60;;;;;;4997990;28;20117;-50
2021/12/23 02:55:46;;;;;;;29.10;10.68;;;6.50;93.20;;;;;;4999949;28;20121;-51
2021/12/23 02:58:12;;;;;;;27.23;10.18;;;6.50;93.20;;;;;;4999997;28;20084;-50
2021/12/23 03:00:40;;;;;;;29.73;10.85;;;6.50;93.10;;;;;;5002279;28;20033;-50
2021/12/23 03:03:06;;;;;;;38.00;12.10;;;6.50;93.20;;;;;;5001215;28;20046;-51
2021/12/23 03:05:32;;;;;;;30.02;10.43;;;6.50;93.20;;;;;;5003352;28;20112;-50
2021/12/23 03:07:59;;;;;;;38.10;13.23;;;6.50;93.20;;;;;;5000834;28;20364;-50
2021/12/23 03:10:25;;;;;;;27.15;10.35;;;6.50;93.20;;;;;;5002684;28;20018;-50
2021/12/23 03:12:51;;;;;;;31.33;10.90;;;6.50;93.20;;;;;;4998669;28;20109;-50
2021/12/23 03:15:17;;;;;;;27.35;10.27;;;6.50;93.20;;;;;;5001169;28;20034;-50
2021/12/23 03:17:43;;;;;;;48.58;14.77;;;6.50;93.20;;;;;;4998453;28;20037;-50
2021/12/23 03:20:09;;;;;;;40.72;11.10;;;6.50;93.30;;;;;;5002800;28;20034;-50
2021/12/23 03:22:34;;;;;;;42.22;14.52;;;6.50;93.30;;;;;;5000331;28;20030;-50
2021/12/23 03:25:00;;;;;;;31.38;11.60;;;6.50;93.30;;;;;;4999495;28;20608;-50
2021/12/23 03:27:25;;;;;;;31.00;10.48;;;6.50;93.30;;;;;;5005200;28;20034;-50
2021/12/23 03:29:51;;;;;;;18.52;6.97;;;6.50;93.20;;;;;;5002107;28;20512;-50
2021/12/23 03:32:17;;;;;;;39.50;13.68;;;6.50;93.20;;;;;;4999103;28;20034;-50
2021/12/23 03:34:43;;;;;;;8.52;5.47;;;6.50;93.30;;;;;;5001418;28;20034;-48
2021/12/23 03:37:09;;;;;;;30.75;11.90;;;6.50;93.30;;;;;;5000216;28;20065;-50
2021/12/23 03:39:35;;;;;;;35.53;12.45;;;6.50;93.30;;;;;;5002760;28;20033;-50
2021/12/23 03:42:00;;;;;;;39.17;15.07;;;6.50;93.30;;;;;;4999382;28;20077;-50
2021/12/23 03:44:26;;;;;;;17.25;9.02;;;6.50;93.30;;;;;;4996551;28;20027;-51
2021/12/23 03:46:52;;;;;;;26.08;9.80;;;6.50;93.30;;;;;;5002404;28;20026;-50
2021/12/23 03:49:17;;;;;;;29.02;11.15;;;6.50;93.30;;;;;;5003343;28;20515;-51
2021/12/23 03:51:43;;;;;;;22.75;10.73;;;6.50;93.30;;;;;;4999116;28;20433;-50
2021/12/23 03:54:08;;;;;;;40.03;13.95;;;6.50;93.30;;;;;;5001418;28;20037;-51
2021/12/23 03:56:34;;;;;;;28.20;10.27;;;6.50;93.30;;;;;;5000602;28;20034;-50
2021/12/23 03:59:00;;;;;;;35.92;10.38;;;6.50;93.20;;;;;;5002771;28;20037;-47
2021/12/23 04:01:28;;;;;;;16.05;7.82;;;6.50;93.30;;;;;;4998264;28;20046;-48
2021/12/23 04:03:54;;;;;;;31.13;12.73;;;6.50;93.30;;;;;;5000934;28;20524;-48
2021/12/23 04:06:21;;;;;;;28.73;11.20;;;6.50;93.30;;;;;;4999341;28;20547;-48
2021/12/23 04:08:47;;;;;;;39.83;10.85;;;6.50;93.30;;;;;;5000109;28;20442;-48
2021/12/23 04:11:13;;;;;;;22.42;8.57;;;6.50;93.20;;;;;;4998474;28;20022;-50
2021/12/23 04:13:39;;;;;;;22.92;8.55;;;6.50;93.20;;;;;;4998730;28;20034;-47
2021/12/23 04:16:05;;;;;;;12.98;4.63;;;6.50;93.20;;;;;;5000969;28;20030;-48
2021/12/23 04:18:31;;;;;;;22.67;7.75;;;6.50;93.20;;;;;;5001774;28;20346;-48
2021/12/23 04:20:56;;;;;;;40.78;13.38;;;6.50;93.20;;;;;;5005579;28;20038;-50
2021/12/23 04:23:28;;;;;;;33.25;13.18;;;6.50;93.30;;;;;;5003311;28;20056;-50
2021/12/23 04:25:55;;;;;;;27.05;9.70;;;6.50;93.30;;;;;;5005302;28;20128;-50
2021/12/23 04:28:21;;;;;;;19.20;6.85;;;6.50;93.60;;;;;;5004228;28;20157;-50
2021/12/23 04:30:47;;;;;;;19.90;9.13;;;6.50;93.20;;;;;;5002340;28;20517;-50
2021/12/23 04:33:13;;;;;;;29.15;11.05;;;6.40;93.20;;;;;;5001636;28;20164;-50
2021/12/23 04:35:40;;;;;;;10.00;3.88;;;6.50;93.30;;;;;;5004022;28;20034;-50
2021/12/23 04:38:06;;;;;;;33.22;11.77;;;6.50;93.20;;;;;;5005119;28;20022;-50
2021/12/23 04:40:36;;;;;;;35.28;12.32;;;6.50;93.30;;;;;;5004826;28;20040;-50
2021/12/23 04:43:03;;;;;;;;;;;6.50;93.20;;;;;;5004610;28;20026;-50
2021/12/23 04:45:29;;;;;;;12.40;5.93;;;6.50;93.20;;;;;;5004923;28;19905;-50
2021/12/23 04:47:55;;;;;;;19.60;5.57;;;6.40;93.10;;;;;;5003723;28;20033;-50
2021/12/23 04:50:20;;;;;;;15.52;7.03;;;6.50;93.10;;;;;;5002544;28;20041;-50
2021/12/23 04:52:46;;;;;;;42.53;10.35;;;6.40;93.20;;;;;;5000883;28;20026;-50
2021/12/23 04:55:14;;;;;;;24.02;7.65;;;6.40;93.20;;;;;;5002327;28;20066;-50
2021/12/23 04:57:40;;;;;;;29.73;11.35;;;6.50;93.20;;;;;;5005291;28;20041;-50
2021/12/23 05:00:10;;;;;;;28.67;9.25;;;6.50;93.10;;;;;;5002616;28;20023;-51
2021/12/23 05:02:35;;;;;;;34.08;13.75;;;6.40;93.10;;;;;;5004414;28;20440;-50
2021/12/23 05:05:01;;;;;;;33.08;10.35;;;6.40;93.20;;;;;;5004465;28;20448;-50
2021/12/23 05:07:27;;;;;;;43.60;14.50;;;6.50;93.20;;;;;;5003916;28;20072;-50
2021/12/23 05:09:52;;;;;;;37.75;14.25;;;6.50;93.20;;;;;;5001885;28;20072;-50
2021/12/23 05:12:18;;;;;;;34.42;13.07;;;6.40;93.10;;;;;;5003548;28;20034;-50
2021/12/23 05:14:43;;;;;;;29.92;11.25;;;6.50;93.20;;;;;;4998413;28;20045;-50
2021/12/23 05:17:09;;;;;;;39.80;9.80;;;6.40;93.20;;;;;;5005214;28;20045;-50
2021/12/23 05:19:35;;;;;;;29.75;11.15;;;6.40;93.20;;;;;;5002485;28;20057;-50
2021/12/23 05:22:00;;;;;;;22.95;6.47;;;6.50;93.20;;;;;;5001735;28;20014;-50
2021/12/23 05:24:26;;;;;;;32.08;11.80;;;6.50;93.10;;;;;;5001385;28;20104;-50
2021/12/23 05:26:52;;;;;;;35.67;10.65;;;6.40;93.20;;;;;;5005257;28;20516;-50
2021/12/23 05:29:17;;;;;;;34.97;11.80;;;6.50;93.20;;;;;;5005062;28;20025;-51
2021/12/23 05:31:43;;;;;;;37.60;12.93;;;6.40;93.20;;;;;;5003107;28;20034;-50
2021/12/23 05:34:09;;;;;;;37.50;12.55;;;6.40;93.20;;;;;;5003705;28;20046;-50
2021/12/23 05:36:34;;;;;;;27.77;9.88;;;6.40;93.20;;;;;;5003377;28;20022;-50
2021/12/23 05:39:00;;;;;;;29.02;11.18;;;6.40;93.20;;;;;;5001291;28;20527;-50
2021/12/23 05:41:27;;;;;;;32.78;9.85;;;6.40;93.20;;;;;;5003075;28;20029;-50
2021/12/23 05:43:57;;;;;;;39.72;13.80;;;6.40;93.20;;;;;;5005291;28;20030;-50
2021/12/23 05:46:23;;;;;;;36.92;13.88;;;6.40;93.20;;;;;;5002204;28;20436;-47
2021/12/23 05:48:49;;;;;;;34.92;11.82;;;6.40;93.30;;;;;;5002753;28;20104;-48
2021/12/23 05:51:15;;;;;;;8.57;3.92;;;6.40;93.20;;;;;;5005870;28;20060;-47
2021/12/23 05:53:41;;;;;;;43.40;14.60;;;6.40;93.20;;;;;;5001807;28;20034;-47
2021/12/23 05:56:07;;;;;;;35.40;13.95;;;6.40;93.20;;;;;;5001797;28;20165;-47
2021/12/23 05:58:33;;;;;;;46.17;14.23;;;6.40;93.20;;;;;;5003571;28;20033;-48
2021/12/23 06:00:59;;;;;;;34.58;11.32;;;6.40;93.20;;;;;;5001449;28;20038;-47
2021/12/23 06:03:25;;;;;;;37.40;11.43;;;6.40;93.20;;;;;;5001697;28;20450;-48
2021/12/23 06:05:51;;;;;;;38.35;14.27;;;6.40;93.30;;;;;;5003806;28;20032;-47
2021/12/23 06:08:17;;;;;;;41.42;15.65;;;6.40;93.30;;;;;;5002346;28;20026;-47
2021/12/23 06:10:43;;;;;;;36.00;11.82;;;6.40;93.30;;;;;;4999925;28;20153;-47
2021/12/23 06:13:08;;;;;;;51.10;16.17;;;6.40;93.30;;;;;;5001205;28;20030;-47
2021/12/23 06:15:34;;;;;;;40.30;15.07;;;6.40;93.30;;;;;;5002177;28;20042;-49
2021/12/23 06:17:59;;;;;;;34.22;13.52;;;6.40;93.30;;;;;;5000929;28;20030;-50
2021/12/23 06:20:25;;;;;;;45.55;14.65;;;6.40;93.30;;;;;;5003039;28;20030;-50
2021/12/23 06:22:51;;;;;;;42.33;15.40;;;6.40;93.30;;;;;;5004192;28;20048;-50
2021/12/23 06:25:17;;;;;;;45.83;15.32;;;6.40;93.30;;;;;;5000337;28;20053;-50
2021/12/23 06:27:43;;;;;;;47.47;13.45;;;6.40;93.30;;;;;;5010736;28;20449;-50
2021/12/23 06:30:22;;;;;;;36.60;13.85;;;6.40;93.30;;;;;;5009164;28;20040;-50
2021/12/23 06:32:54;;;;;;;39.75;12.63;;;6.40;93.30;;;;;;5008326;28;20104;-50
2021/12/23 06:35:23;;;;;;;35.25;12.55;;;6.40;93.30;;;;;;5008558;28;20044;-50
2021/12/23 06:37:49;;;;;;;42.30;13.98;;;6.40;93.30;;;;;;5009581;28;20045;-50
2021/12/23 06:40:15;;;;;;;35.95;14.02;;;6.40;93.30;;;;;;5007424;28;20432;-50
2021/12/23 06:42:41;;;;;;;38.72;13.57;;;6.40;93.40;;;;;;5009273;28;20414;-50
2021/12/23 06:45:08;;;;;;;39.40;12.30;;;6.40;93.40;;;;;;5007778;28;20021;-50
2021/12/23 06:47:34;;;;;;;33.55;11.30;;;6.40;93.30;;;;;;5010169;28;20030;-50
2021/12/23 06:50:00;;;;;;;41.63;14.23;;;6.40;93.40;;;;;;5010083;28;20033;-49
2021/12/23 06:52:26;;;;;;;41.90;13.10;;;6.40;93.30;;;;;;5009194;28;20021;-50
2021/12/23 06:54:54;;;;;;;27.05;11.50;;;6.40;93.40;;;;;;5006701;28;20026;-49
2021/12/23 06:57:24;;;;;;;46.47;14.15;;;6.40;93.40;;;;;;5006670;28;20041;-49
2021/12/23 06:59:49;;;;;;;37.25;14.73;;;6.30;93.30;;;;;;5010272;28;20029;-50
2021/12/23 07:02:15;;;;;;;40.20;12.43;;;6.40;93.40;;;;;;5008010;28;20037;-49
2021/12/23 07:04:43;;;;;;;24.85;10.00;;;6.40;93.40;;;;;;5010159;28;20022;-49
2021/12/23 07:07:10;;;;;;;37.13;13.57;;;6.30;93.30;;;;;;5008148;28;20081;-49
2021/12/23 07:09:40;;;;;;;33.30;12.32;;;6.40;93.40;;;;;;5005101;28;20156;-50
2021/12/23 07:12:09;;;;;;;41.53;14.20;;;6.30;93.40;;;;;;5007735;28;20040;-50
2021/12/23 07:14:36;;;;;;;31.33;12.07;;;6.30;93.40;;;;;;5010037;28;20430;-49
2021/12/23 07:17:02;;;;;;;30.55;10.75;;;6.30;93.40;;;;;;5003028;28;20030;-50
2021/12/23 07:19:28;;;;;;;31.02;10.60;;;6.40;93.40;;;;;;5005645;28;20034;-49
2021/12/23 07:21:54;;;;;;;27.98;9.75;;;6.40;93.40;;;;;;5009462;28;20018;-49
2021/12/23 07:24:20;;;;;;;30.80;11.57;;;6.40;93.40;;;;;;5007236;28;20381;-50
2021/12/23 07:26:46;;;;;;;36.65;12.88;;;6.40;93.30;;;;;;5004413;28;20021;-49
2021/12/23 07:29:12;;;;;;;32.08;11.02;;;6.40;93.40;;;;;;5006582;28;20488;-49
2021/12/23 07:31:38;;;;;;;35.25;11.52;;;6.40;93.30;;;;;;5005317;28;20037;-49
2021/12/23 07:34:03;;;;;;;34.35;11.57;;;6.40;93.30;;;;;;5001316;28;20034;-50
2021/12/23 07:36:29;;;;;;;29.63;10.95;;;6.40;93.30;;;;;;5000550;28;20022;-50
2021/12/23 07:38:56;;;;;;;28.92;9.85;;;6.40;93.30;;;;;;5000800;28;20312;-49
2021/12/23 07:41:22;;;;;;;40.80;13.70;;;6.40;93.30;;;;;;4999224;28;20113;-50
2021/12/23 07:44:04;;;;;;;33.90;12.43;;;6.30;93.30;;;;;;5002200;28;20026;-49
2021/12/23 07:46:33;;;;;;;37.65;13.95;;;6.40;93.30;;;;;;5002236;28;20444;-49
2021/12/23 07:48:59;;;;;;;30.67;12.07;;;6.30;93.30;;;;;;5000390;28;20434;-49
2021/12/23 07:51:25;;;;;;;30.27;12.40;;;6.30;93.30;;;;;;5004746;28;20041;-49
2021/12/23 07:53:53;;;;;;;3.67;2.65;;;6.40;93.40;;;;;;4998979;28;20495;-49
2021/12/23 07:56:20;;;;;;;31.67;9.20;;;6.30;93.20;;;;;;5001950;28;20100;-49
2021/12/23 07:58:45;;;;;;;26.65;10.45;;;6.30;93.30;;;;;;5006011;28;20109;-49
2021/12/23 08:01:11;;;;;;;20.48;7.45;;;6.30;93.50;;;;;;5003536;28;20118;-49
2021/12/23 08:03:37;;;;;;;25.13;9.98;;;6.40;93.30;;;;;;5004268;28;20478;-49
2021/12/23 08:06:03;;;;;;;29.95;11.73;;;6.40;93.40;;;;;;5003550;28;20026;-49
2021/12/23 08:08:28;;;;;;;36.58;10.93;;;6.40;93.40;;;;;;5009236;28;20072;-49
2021/12/23 08:10:54;;;;;;;30.33;11.32;;;6.40;93.30;;;;;;5000657;28;20045;-49
2021/12/23 08:13:20;;;;;;;29.65;9.05;;;6.40;93.30;;;;;;5002101;28;20031;-49
2021/12/23 08:15:46;;;;;;;27.80;9.93;;;6.40;93.40;;;;;;5008386;28;20045;-49
2021/12/23 08:18:12;;;;;;;24.90;10.23;;;6.40;93.40;;;;;;5004757;28;20057;-50
2021/12/23 08:20:37;;;;;;;28.88;10.15;;;6.40;93.40;;;;;;5003317;28;20023;-49
2021/12/23 08:23:04;;;;;;;29.52;10.57;;;6.40;93.40;;;;;;5007454;28;20229;-49
2021/12/23 08:25:29;;;;;;;35.58;12.20;;;6.40;93.30;;;;;;5005768;28;20026;-49
2021/12/23 08:27:55;;;;;;;29.80;10.18;;;6.40;93.40;;;;;;4999316;28;20105;-49
2021/12/23 08:30:22;;;;;;;31.65;11.25;;;6.40;93.30;;;;;;5008704;28;20030;-49
2021/12/23 08:32:49;;;;;;;41.28;13.27;;;6.40;93.40;;;;;;5006124;28;20061;-49
2021/12/23 08:35:16;;;;;;;32.78;12.30;;;6.40;93.40;;;;;;5002819;28;20104;-50
2021/12/23 08:37:46;;;;;;;40.50;11.70;;;6.40;93.40;;;;;;5010493;28;20013;-49
2021/12/23 08:40:14;;;;;;;27.90;9.38;;;6.40;93.40;;;;;;5005479;28;20125;-49
2021/12/23 08:42:40;;;;;;;34.47;11.32;;;6.40;93.40;;;;;;5003087;28;20092;-49
2021/12/23 08:45:07;;;;;;;33.00;9.63;;;6.40;93.50;;;;;;5005346;28;20061;-50
2021/12/23 08:47:33;;;;;;;26.98;10.18;;;6.40;93.50;;;;;;5004911;28;20029;-49
2021/12/23 08:50:00;;;;;;;36.03;11.38;;;6.40;93.50;;;;;;5004339;28;20029;-50
2021/12/23 08:52:26;;;;;;;30.30;11.18;;;6.40;93.50;;;;;;5004305;28;20525;-49
2021/12/23 08:54:53;;;;;;;38.70;11.35;;;6.40;93.50;;;;;;5002044;28;20046;-49
2021/12/23 08:57:19;;;;;;;30.42;9.88;;;6.40;93.50;;;;;;5005917;28;20033;-49
2021/12/23 08:59:46;;;;;;;30.08;10.65;;;6.40;93.50;;;;;;5002043;28;20057;-50
2021/12/23 09:02:12;;;;;;;36.40;11.15;;;6.50;93.50;;;;;;5001942;28;20037;-49
2021/12/23 09:04:38;;;;;;;13.55;5.85;;;6.40;93.50;;;;;;5004924;28;20022;-49
2021/12/23 09:07:04;;;;;;;37.92;12.25;;;6.40;93.50;;;;;;5001626;28;20042;-50
2021/12/23 09:09:33;;;;;;;29.38;10.70;;;6.40;93.60;;;;;;5005389;28;20029;-50
2021/12/23 09:11:59;;;;;;;30.05;8.93;;;6.40;93.60;;;;;;5000993;28;20457;-50
2021/12/23 09:14:25;;;;;;;22.92;7.90;;;6.50;93.60;;;;;;5003306;28;20030;-49
2021/12/23 09:16:51;;;;;;;24.52;8.63;;;6.40;93.40;;;;;;5004536;28;20356;-50
2021/12/23 09:19:16;;;;;;;28.88;11.70;;;6.50;93.60;;;;;;5005114;28;20026;-50
2021/12/23 09:21:42;;;;;;;28.80;11.63;;;6.50;93.60;;;;;;5003144;28;20273;-50
2021/12/23 09:24:08;;;;;;;22.50;10.43;;;6.50;93.60;;;;;;5003861;28;20019;-49
2021/12/23 09:26:43;;;;;;;15.50;7.28;;;6.50;93.60;;;;;;5004548;28;20065;-50
2021/12/23 09:29:16;;;;;;;33.05;12.13;;;6.50;93.60;;;;;;5002082;28;20053;-50
2021/12/23 09:34:26;;;;;;;20.83;7.82;;;6.50;93.60;;;;;;5002927;28;20123;-50
2021/12/23 09:36:51;;;;;;;34.03;13.23;;;6.50;93.60;;;;;;5001352;28;20436;-49
2021/12/23 09:39:17;;;;;;;32.78;11.20;;;6.50;93.80;;;;;;4998361;28;21664;-50
2021/12/23 09:41:46;;;;;;;34.33;13.32;;;6.50;93.70;;;;;;5003760;28;20440;-50
2021/12/23 09:44:14;;;;;;;27.20;10.63;;;6.50;93.70;;;;;;5001573;28;20100;-50
2021/12/23 09:46:40;;;;;;;27.92;10.30;;;6.50;93.70;;;;;;5002746;28;20129;-50
2021/12/23 09:49:06;;;;;;;25.50;7.72;;;6.50;93.70;;;;;;5004307;28;20502;-50
2021/12/23 09:51:33;;;;;;;8.98;2.90;;;6.50;93.70;;;;;;5000947;28;20030;-50
2021/12/23 09:54:03;;;;;;;31.52;10.35;;;6.60;93.60;;;;;;5001653;28;20093;-50
2021/12/23 09:56:30;;;;;;;22.38;8.73;;;6.60;93.70;;;;;;5002928;28;20065;-50
2021/12/23 09:58:58;;;;;;;25.52;10.55;;;6.60;93.70;;;;;;5002684;28;20022;-50
2021/12/23 10:01:26;;;;;;;32.47;10.23;;;6.60;93.80;;;;;;5002242;28;20079;-50
2021/12/23 10:03:52;;;;;;;27.50;8.07;;;6.60;93.80;;;;;;5001497;28;20049;-50
2021/12/23 10:06:17;;;;;;;36.17;11.32;;;6.60;93.80;;;;;;5001432;28;20081;-50
2021/12/23 10:08:45;;;;;;;6.82;4.03;;;6.60;93.80;;;;;;5002988;28;20036;-50
2021/12/23 10:30:36;;;;;;;15.20;6.65;;;6.60;93.70;;;;;;5003369;28;20026;-50
2021/12/23 10:38:36;;;;;;;21.25;8.32;;;6.70;94.20;;;;;;5002664;28;20021;-50
2021/12/23 10:41:26;;;;;;;19.02;8.80;;;6.60;93.80;;;;;;5000138;28;20034;-50
2021/12/23 10:43:58;;;;;;;21.95;7.70;;;6.60;93.80;;;;;;5001766;28;20030;-50
2021/12/23 10:46:30;;;;;;;23.92;8.15;;;6.70;93.80;;;;;;5000162;28;20026;-50
2021/12/23 10:52:02;;;;;;;33.50;10.63;;;6.70;93.70;;;;;;5005330;28;20342;-50
2021/12/23 11:00:24;;;;;;;12.88;6.57;;;6.70;93.80;;;;;;5000456;28;20126;-50
2021/12/23 11:03:15;;;;;;;15.00;6.25;;;6.70;93.70;;;;;;4997340;28;20334;-50
2021/12/23 11:05:54;;;;;;;31.90;9.95;;;6.70;93.80;;;;;;5000761;28;20049;-49
2021/12/23 11:08:37;;;;;;;29.13;8.73;;;6.70;93.80;;;;;;5008782;28;20469;-50
2021/12/23 11:36:31;;;;;;;33.67;11.23;;;6.80;94.00;;;;;;5001846;28;20096;-50
2021/12/23 11:43:57;;;;;;;5.20;3.30;;;6.80;94.20;;;;;;5004941;28;20029;-50
2021/12/23 11:46:54;;;;;;;33.05;9.95;;;6.80;94.30;;;;;;5003295;28;20018;-49
2021/12/23 11:49:20;;;;;;;16.27;5.82;;;6.80;94.30;;;;;;5002223;28;20042;-49
2021/12/23 11:54:19;;;;;;;28.52;8.18;;;6.80;94.30;;;;;;5000534;28;20440;-50
2021/12/23 11:56:52;;;;;;;27.50;7.85;;;6.80;94.30;;;;;;4999304;28;20042;-50
2021/12/23 11:59:19;;;;;;;27.00;9.77;;;6.80;94.40;;;;;;5003127;28;20022;-50
2021/12/23 12:01:47;;;;;;;17.58;6.90;;;6.80;94.60;;;;;;5001247;28;20030;-50
2021/12/23 12:04:35;;;;;;;28.70;9.57;;;6.80;94.60;;;;;;5001977;28;20026;-50
2021/12/23 12:07:12;;;;;;;13.90;6.32;;;6.80;94.60;;;;;;5000547;28;20487;-50
2021/12/23 12:10:09;;;;;;;12.55;5.82;;;6.90;94.50;;;;;;5000285;28;20351;-50
2021/12/23 12:12:55;;;;;;;18.40;6.55;;;6.90;94.50;;;;;;5000705;28;20046;-50
2021/12/23 12:15:33;;;;;;;20.70;7.90;;;6.90;94.50;;;;;;5001457;28;20115;-50
2021/12/23 12:18:05;;;;;;;14.60;6.20;;;6.90;94.60;;;;;;5003051;28;20207;-49
2021/12/23 12:20:37;;;;;;;21.45;8.75;;;6.90;94.50;;;;;;5003628;28;20044;-50
2021/12/23 12:23:13;;;;;;;14.88;5.18;;;6.90;94.70;;;;;;5003443;28;20022;-50
2021/12/23 12:25:40;;;;;;;26.85;8.80;;;6.90;94.50;;;;;;5005883;28;20036;-50
2021/12/23 12:28:06;;;;;;;28.27;10.48;;;6.90;94.60;;;;;;5003384;28;20030;-50
2021/12/23 12:30:35;;;;;;;22.33;8.18;;;6.90;94.70;;;;;;5005869;28;20404;-49
2021/12/23 12:33:23;;;;;;;37.35;10.20;;;6.90;94.60;;;;;;5002395;28;20030;-49
2021/12/23 12:36:02;;;;;;;4.80;3.22;;;7.00;94.70;;;;;;5005159;28;20184;-49
2021/12/23 12:38:51;;;;;;;28.58;9.10;;;7.00;94.50;;;;;;5007014;28;20109;-49
2021/12/23 12:41:34;;;;;;;8.80;4.00;;;7.00;94.60;;;;;;5008504;28;20451;-50
2021/12/23 12:44:32;;;;;;;17.80;6.57;;;7.00;94.60;;;;;;5008659;28;20463;-50
2021/12/23 12:47:04;;;;;;;13.68;6.00;;;7.00;94.50;;;;;;5011938;28;20038;-49
2021/12/23 12:49:35;;;;;;;24.67;9.05;;;7.00;94.40;;;;;;5011148;28;20534;-49
2021/12/23 12:52:18;;;;;;;21.35;8.93;;;7.00;94.50;;;;;;5004257;28;20311;-50
2021/12/23 12:54:51;;;;;;;16.02;6.25;;;7.00;94.80;;;;;;5004065;28;20045;-50
2021/12/23 12:57:19;;;;;;;24.42;7.15;;;7.00;94.70;;;;;;5005811;28;20038;-49
2021/12/23 12:59:46;;;;;;;17.27;6.47;;;7.00;94.80;;;;;;5005073;28;20029;-50
2021/12/23 13:02:32;;;;;;;28.10;8.50;;;7.00;94.70;;;;;;5010605;28;20037;-50
2021/12/23 13:05:06;;;;;;;27.75;8.13;;;7.00;94.70;;;;;;5011614;28;20021;-49
2021/12/23 13:07:35;;;;;;;27.58;6.93;;;7.00;95.00;;;;;;5011785;28;20018;-50
2021/12/23 13:10:15;;;;;;;17.88;5.85;;;7.00;94.70;;;;;;5012442;28;20026;-49
2021/12/23 13:12:51;;;;;;;19.40;6.75;;;7.00;94.50;;;;;;5007509;28;20403;-50
2021/12/23 13:15:33;;;;;;;23.05;8.35;;;7.10;94.70;;;;;;5011856;28;20042;-49
2021/12/23 13:18:08;;;;;;;17.40;7.35;;;7.00;94.70;;;;;;5010910;28;20018;-50
2021/12/23 13:20:41;;;;;;;31.45;10.52;;;7.10;94.80;;;;;;5011885;28;20155;-49
2021/12/23 13:23:12;;;;;;;26.45;8.45;;;7.10;94.80;;;;;;5005425;28;20334;-49
2021/12/23 13:26:05;;;;;;;19.95;7.35;;;7.00;94.90;;;;;;5008332;28;20030;-50
2021/12/23 13:28:37;;;;;;;8.73;4.00;;;7.10;94.70;;;;;;5001336;28;20089;-50
2021/12/23 13:31:28;;;;;;;28.15;9.32;;;7.10;94.70;;;;;;5011069;28;20034;-50
2021/12/23 13:33:53;;;;;;;17.38;8.45;;;7.10;94.80;;;;;;5007779;28;20397;-50
2021/12/23 13:36:28;;;;;;;17.02;7.20;;;7.10;94.80;;;;;;5010493;28;20037;-50
2021/12/23 13:38:59;;;;;;;15.75;6.32;;;7.10;94.70;;;;;;5010381;28;20603;-49
2021/12/23 13:41:46;;;;;;;27.83;10.77;;;7.10;94.80;;;;;;5009052;28;20461;-49
2021/12/23 13:44:14;;;;;;;20.75;7.97;;;7.10;95.00;;;;;;5005133;28;20061;-49
2021/12/23 13:46:42;;;;;;;25.83;9.95;;;7.10;95.10;;;;;;5007346;28;20025;-49
2021/12/23 13:49:09;;;;;;;31.67;10.98;;;7.00;95.00;;;;;;5002108;28;20089;-50
2021/12/23 13:51:37;;;;;;;18.63;7.93;;;7.10;95.00;;;;;;5002951;28;20296;-49
2021/12/23 13:54:04;;;;;;;22.00;10.02;;;7.10;95.40;;;;;;5002703;28;20026;-49
2021/12/23 13:56:32;;;;;;;15.13;6.45;;;7.10;95.20;;;;;;4999890;28;20484;-49
2021/12/23 13:59:16;;;;;;;26.27;10.77;;;7.10;95.10;;;;;;5004493;28;20030;-50
2021/12/23 14:02:06;;;;;;;33.53;11.27;;;7.10;95.20;;;;;;5003221;28;20491;-49
2021/12/23 14:04:45;;;;;;;31.58;8.57;;;7.10;95.30;;;;;;5001549;28;20030;-50
2021/12/23 14:07:16;;;;;;;33.10;10.38;;;7.10;95.20;;;;;;5004584;28;20042;-49
2021/12/23 14:09:41;;;;;;;30.13;7.32;;;7.10;95.10;;;;;;5003280;28;20030;-49